CYVO

Details ICAO CYVO (YVO)
Name VAL D OR
Region Canada
Timezone America/Montreal (UTC-4.0)
Plans Departing 25
Arriving 45
Stats Elevation 1,107 ft / 337 m (AMSL)
Location 48.053286° -77.782659°
Runways 1
Magnetic Variation 12.834° W
Sunrise 2018-05-21 09:26:34 UTC / 2018-05-21 05:26:34 Local
Sunset 2018-05-22 00:51:45 UTC / 2018-05-21 20:51:45 Local
Advertisement - Login to hide

Runways

ID Width Length Bearing (true) Bearing (mag) Surface Threshold Offset Overrun Length
18 150 ft / 46 m 10,003 ft / 3,049 m 169.14° 181.97° Asphalt 0 ft / 0 m 0 ft / 0 m
36 150 ft / 46 m 10,003 ft / 3,049 m 349.15° 1.98° Asphalt 0 ft / 0 m 0 ft / 0 m

Approach Navaids

Runway Type Ident Frequency Range Bearing (true) Bearing (mag) Slope Elevation
18 Localiser IVO 110.30 MHz 50 nm / 93 km 169.30° 182.14° - 1,107 ft / 337 m (AMSL)
18 Glidescope IVO 110.30 MHz 50 nm / 93 km 183.00° 195.83° 3.00° 1,107 ft / 337 m (AMSL)

Map

Weather


0- 5 10 15 20 25 30 35+ Temperature / ° C

Clouds and Precipitation
Forecast for 2018-05-21 18:00 UTC. Updated 21 minutes ago

Ground ~20,000 ft ~40,000 ft Winds

METAR

CYVO 211700Z 32009KT 250V350 15SM FEW028 19/01 A3011 RMK CU1 CU TR SLP203 DENSITY ALT 1600FT

TAF

TAF CYVO 211138Z 2112/2124 27007KT P6SM FEW100 BECMG 2113/2115 28008KT FM211700 30010G20KT P6SM FEW080 BECMG 2122/2124 31005KT RMK NXT FCST BY 211800Z

Frequencies

Tower 118.50 MHz MF
Warning: Do not use this data for real-world aviation or navigation. No guarantee of current accuracy is given.